Time;durP1;ratioP1;P1;durP2;ratioP2;P2;SDS_P1;SDS_P2;PMS_P1;PMS_P2;Temp;Humidity;BMP_temperature;BMP_pressure;BME280_temperature;BME280_humidity;BME280_pressure;Samples;Min_cycle;Max_cycle;Signal;HPM_P1;HPM_P2
2023/08/25 00:00:29;;;;;;;;;10.25;9.75;;;;;30.13;100.00;100298.31;2113935;27;46612;-65
2023/08/25 00:01:30;;;;;;;;;9.00;9.00;;;;;30.14;100.00;100294.53;2112150;27;47163;-65
2023/08/25 00:02:30;;;;;;;;;11.00;11.00;;;;;30.13;100.00;100303.78;2122529;27;46857;-65
2023/08/25 00:03:31;;;;;;;;;10.50;10.50;;;;;30.12;100.00;100289.25;2123336;27;46290;-65
2023/08/25 00:04:31;;;;;;;;;9.00;8.50;;;;;30.13;100.00;100290.09;2122507;27;46280;-65
2023/08/25 00:05:39;;;;;;;;;5.25;5.25;;;;;30.45;100.00;100291.97;2123093;27;46792;-65
2023/08/25 00:06:39;;;;;;;;;12.20;11.40;;;;;30.20;100.00;100287.50;2122609;27;46714;-65
2023/08/25 00:07:39;;;;;;;;;10.00;10.00;;;;;30.15;100.00;100285.31;2122556;27;46150;-66
2023/08/25 00:08:40;;;;;;;;;11.00;10.00;;;;;30.13;100.00;100290.09;2122766;27;46436;-65
2023/08/25 00:09:40;;;;;;;;;11.00;10.25;;;;;30.13;100.00;100288.22;2122524;27;46751;-65
2023/08/25 00:10:40;;;;;;;;;10.00;10.00;;;;;30.11;100.00;100282.06;2122770;27;46573;-64
2023/08/25 00:11:41;;;;;;;;;8.25;7.75;;;;;30.11;100.00;100284.78;2122718;27;46304;-65
2023/08/25 00:12:41;;;;;;;;;10.00;10.00;;;;;30.10;100.00;100291.25;2113402;27;45123;-65
2023/08/25 00:13:42;;;;;;;;;10.25;9.50;;;;;30.09;100.00;100286.81;2114184;27;46448;-65
2023/08/25 00:14:42;;;;;;;;;8.75;8.75;;;;;30.09;100.00;100283.22;2122879;27;46549;-64
2023/08/25 00:15:44;;;;;;;;;10.00;10.00;;;;;30.08;100.00;100276.03;2123050;27;45970;-65
2023/08/25 00:16:44;;;;;;;;;8.40;8.40;;;;;30.07;100.00;100274.34;2122527;27;45251;-66
2023/08/25 00:17:44;;;;;;;;;12.00;10.75;;;;;30.08;100.00;100285.09;2122999;27;46602;-66
2023/08/25 00:18:45;;;;;;;;;10.50;10.50;;;;;30.08;100.00;100274.16;2122609;27;46602;-66
2023/08/25 00:19:46;;;;;;;;;11.00;11.00;;;;;30.07;100.00;100279.81;2112060;27;46664;-67
2023/08/25 00:20:48;;;;;;;;;12.25;12.25;;;;;30.07;100.00;100271.59;2113415;27;46729;-66
2023/08/25 00:21:49;;;;;;;;;13.25;12.25;;;;;30.05;100.00;100274.50;2123003;27;45555;-66
2023/08/25 00:22:49;;;;;;;;;9.33;9.33;;;;;30.05;100.00;100273.63;2122666;27;46821;-65
2023/08/25 00:23:49;;;;;;;;;10.67;10.67;;;;;30.05;100.00;100271.78;2122545;27;47013;-65
2023/08/25 00:24:52;;;;;;;;;11.00;11.00;;;;;30.03;100.00;100268.31;2122508;27;46674;-65
2023/08/25 00:25:53;;;;;;;;;11.00;10.00;;;;;30.05;100.00;100279.09;2122814;27;46780;-64
2023/08/25 00:26:53;;;;;;;;;11.33;11.33;;;;;30.04;100.00;100274.66;2122840;27;45671;-66
2023/08/25 00:27:54;;;;;;;;;10.67;10.33;;;;;30.04;100.00;100274.66;2121772;27;46411;-65
2023/08/25 00:28:54;;;;;;;;;10.00;10.00;;;;;30.04;100.00;100271.91;2121226;27;46424;-65
2023/08/25 00:29:54;;;;;;;;;8.33;8.33;;;;;30.03;100.00;100268.31;2118096;27;46425;-65
2023/08/25 00:30:55;;;;;;;;;10.00;10.00;;;;;30.03;100.00;100268.31;2123075;27;46555;-64
2023/08/25 00:31:55;;;;;;;;;10.00;10.00;;;;;30.00;100.00;100263.19;2122731;27;46788;-64
2023/08/25 00:32:56;;;;;;;;;12.00;10.50;;;;;30.01;100.00;100259.44;2121798;27;46358;-65
2023/08/25 00:33:57;;;;;;;;;11.00;11.00;;;;;30.00;100.00;100256.88;2113428;27;46274;-65
2023/08/25 00:34:58;;;;;;;;;10.80;10.80;;;;;30.01;100.00;100259.44;2112216;27;46646;-65
2023/08/25 00:35:58;;;;;;;;;9.50;8.75;;;;;30.01;100.00;100259.44;2122538;27;46388;-65
2023/08/25 00:37:00;;;;;;;;;11.33;10.67;;;;;30.02;100.00;100252.94;2122587;27;46373;-65
2023/08/25 00:38:00;;;;;;;;;11.00;9.75;;;;;30.02;100.00;100258.41;2120397;27;45210;-65
2023/08/25 00:39:01;;;;;;;;;9.75;9.75;;;;;30.02;100.00;100254.81;2095348;28;46551;-65
2023/08/25 00:40:02;;;;;;;;;11.00;11.00;;;;;30.02;100.00;100255.66;2095083;28;46161;-65
2023/08/25 00:41:03;;;;;;;;;10.25;9.25;;;;;30.00;100.00;100252.25;2113096;27;46426;-65
2023/08/25 00:42:03;;;;;;;;;8.33;8.33;;;;;30.00;100.00;100251.41;2122490;27;46297;-64
2023/08/25 00:43:04;;;;;;;;;11.00;11.00;;;;;30.00;100.00;100255.00;2122513;27;46436;-66
2023/08/25 00:44:04;;;;;;;;;11.25;10.25;;;;;29.99;100.00;100247.81;2122411;27;46610;-64
2023/08/25 00:45:05;;;;;;;;;13.25;11.50;;;;;30.00;100.00;100246.78;2122498;27;46150;-64
2023/08/25 00:46:06;;;;;;;;;10.00;9.50;;;;;30.01;100.00;100242.16;2120207;27;45775;-64
2023/08/25 00:47:06;;;;;;;;;8.50;8.50;;;;;30.03;100.00;100243.69;2114234;27;46668;-64
2023/08/25 00:48:08;;;;;;;;;9.50;9.50;;;;;30.02;100.00;100235.66;2121374;27;46937;-64
2023/08/25 00:49:08;;;;;;;;;9.75;8.75;;;;;30.02;100.00;100236.50;2122384;27;46457;-64
2023/08/25 00:50:11;;;;;;;;;9.67;9.67;;;;;30.02;100.00;100238.41;2120944;27;46856;-65
2023/08/25 00:51:12;;;;;;;;;9.00;9.00;;;;;30.01;100.00;100234.81;2121138;27;46385;-65
2023/08/25 00:52:14;;;;;;;;;8.67;8.67;;;;;30.01;100.00;100243.00;2120994;27;46463;-64
2023/08/25 00:53:14;;;;;;;;;10.75;8.50;;;;;30.00;100.00;100240.44;2113723;27;46476;-64
2023/08/25 00:54:15;;;;;;;;;10.33;10.00;;;;;30.00;100.00;100235.84;2119424;27;45843;-65
2023/08/25 00:55:15;;;;;;;;;9.67;9.67;;;;;30.01;100.00;100233.94;2122640;27;46264;-65
2023/08/25 00:56:17;;;;;;;;;9.00;9.00;;;;;30.19;100.00;100234.66;2122859;27;46489;-64
2023/08/25 00:57:18;;;;;;;;;10.75;10.75;;;;;30.36;100.00;100238.22;2122314;27;46589;-65
2023/08/25 00:58:20;;;;;;;;;12.80;12.80;;;;;30.08;100.00;100233.13;2122523;27;46841;-66
2023/08/25 00:59:21;;;;;;;;;8.00;8.00;;;;;30.25;100.00;100235.88;2122000;27;46731;-64
2023/08/25 01:00:22;;;;;;;;;7.80;7.80;;;;;30.20;100.00;100236.38;2122443;27;46510;-65
2023/08/25 01:01:22;;;;;;;;;9.75;9.75;;;;;30.16;100.00;100238.59;2122470;27;46591;-64
2023/08/25 01:02:23;;;;;;;;;10.00;10.00;;;;;30.15;100.00;100242.38;2121839;27;46186;-64
2023/08/25 01:03:24;;;;;;;;;11.00;11.00;;;;;30.16;100.00;100237.75;2122379;27;45617;-64
2023/08/25 01:04:24;;;;;;;;;10.75;10.75;;;;;30.17;100.00;100239.44;2121755;27;47329;-67
2023/08/25 01:05:25;;;;;;;;;9.25;9.25;;;;;30.16;100.00;100235.84;2119009;27;46307;-65
2023/08/25 01:06:25;;;;;;;;;9.25;9.25;;;;;30.12;100.00;100234.50;2121890;27;46709;-65
2023/08/25 01:07:25;;;;;;;;;8.25;8.25;;;;;30.12;100.00;100244.59;2122300;27;46216;-65
2023/08/25 01:08:26;;;;;;;;;9.75;9.25;;;;;30.05;100.00;100249.00;2112984;27;47006;-64
2023/08/25 01:09:27;;;;;;;;;10.50;10.50;;;;;30.00;100.00;100251.41;2113107;27;46009;-64
2023/08/25 01:10:38;;;;;;;;;10.20;10.20;;;;;29.98;100.00;100248.81;2122444;27;45979;-65
2023/08/25 01:12:04;;;;;;;;;11.60;10.80;;;;;29.98;100.00;100251.53;2122676;27;46608;-65
2023/08/25 01:13:19;;;;;;;;;9.00;9.00;;;;;29.96;100.00;100253.59;2112343;27;46489;-64
2023/08/25 01:15:00;;;;;;;;;12.40;12.40;;;;;29.97;100.00;100259.91;2106934;27;46332;-65
2023/08/25 01:16:05;;;;;;;;;12.40;11.20;;;;;29.95;100.00;100260.09;2095632;28;46871;-67
2023/08/25 01:17:19;;;;;;;;;8.80;8.80;;;;;30.01;100.00;100264.06;2095840;28;46747;-64
2023/08/25 01:18:27;;;;;;;;;11.40;11.40;;;;;30.05;100.00;100255.34;2095814;28;46837;-64
2023/08/25 01:19:46;;;;;;;;;18.60;17.00;;;;;30.01;100.00;100259.44;2096763;28;46469;-65
2023/08/25 01:20:48;;;;;;;;;14.60;13.20;;;;;29.92;100.00;100256.84;2096523;28;48589;-65
2023/08/25 01:21:51;;;;;;;;;12.20;12.00;;;;;29.87;100.00;100255.50;2086209;28;46465;-64
2023/08/25 01:22:58;;;;;;;;;13.60;11.80;;;;;29.86;100.00;100253.78;2088014;28;46176;-65
2023/08/25 01:24:15;;;;;;;;;11.80;11.80;;;;;29.87;100.00;100254.63;2088141;28;46950;-66
2023/08/25 01:25:22;;;;;;;;;12.00;11.00;;;;;29.84;100.00;100258.53;2093367;28;46432;-65
2023/08/25 01:26:23;;;;;;;;;10.80;10.80;;;;;29.84;100.00;100264.00;2096227;28;46646;-65
2023/08/25 01:27:24;;;;;;;;;8.00;8.00;;;;;29.85;100.00;100256.66;2095922;28;46281;-66
2023/08/25 01:28:24;;;;;;;;;11.25;11.00;;;;;29.84;100.00;100252.22;2095276;28;46230;-64
2023/08/25 01:29:25;;;;;;;;;11.40;11.00;;;;;29.85;100.00;100260.25;2095744;28;47231;-65
2023/08/25 01:30:26;;;;;;;;;9.25;9.00;;;;;29.87;100.00;100260.09;2096047;28;46225;-66
2023/08/25 01:31:27;;;;;;;;;9.40;9.40;;;;;29.86;100.00;100253.78;2095636;28;46539;-64
2023/08/25 01:32:27;;;;;;;;;10.50;10.50;;;;;29.86;100.00;100252.94;2096001;28;46885;-64
2023/08/25 01:33:30;;;;;;;;;10.00;10.00;;;;;29.86;100.00;100261.13;2095593;28;46255;-64
2023/08/25 01:34:30;;;;;;;;;11.20;11.20;;;;;29.85;100.00;100256.66;2094587;28;46401;-64
2023/08/25 01:36:02;;;;;;;;;10.75;10.75;;;;;29.86;100.00;100252.94;2098639;28;46608;-64
2023/08/25 01:37:11;;;;;;;;;12.80;11.60;;;;;29.85;100.00;100254.78;2087098;28;46689;-65
2023/08/25 01:38:23;;;;;;;;;11.00;10.00;;;;;29.83;100.00;100245.03;2092530;28;46415;-65
2023/08/25 01:39:25;;;;;;;;;9.40;9.40;;;;;29.84;100.00;100244.00;2087893;28;46904;-64
2023/08/25 01:40:37;;;;;;;;;10.00;10.00;;;;;29.83;100.00;100245.03;2095324;28;46920;-64
2023/08/25 01:41:40;;;;;;;;;8.60;7.40;;;;;29.82;100.00;100235.13;2101271;28;46370;-64
2023/08/25 01:42:45;;;;;;;;;11.20;11.20;;;;;29.81;100.00;100237.00;2102716;28;46874;-65
2023/08/25 01:43:51;;;;;;;;;13.00;13.00;;;;;29.79;100.00;100236.31;2103912;28;46598;-64
2023/08/25 01:44:53;;;;;;;;;12.60;12.60;;;;;29.80;100.00;100242.63;2097496;28;46823;-64
2023/08/25 01:45:54;;;;;;;;;12.80;12.60;;;;;29.79;100.00;100246.41;2099096;28;46924;-64
2023/08/25 01:47:01;;;;;;;;;12.80;12.80;;;;;29.77;100.00;100245.72;2095327;28;46716;-64
2023/08/25 01:48:05;;;;;;;;;13.60;13.60;;;;;29.76;100.00;100253.06;2095786;28;46962;-65
2023/08/25 01:49:07;;;;;;;;;13.00;13.00;;;;;29.74;100.00;100246.06;2095664;28;46864;-64
2023/08/25 01:50:10;;;;;;;;;14.20;14.20;;;;;29.74;100.00;100246.06;2095846;28;47351;-64
2023/08/25 01:51:11;;;;;;;;;17.20;14.60;;;;;29.74;100.00;100237.84;2095409;28;46930;-65
2023/08/25 01:52:12;;;;;;;;;17.60;15.00;;;;;29.75;100.00;100242.31;2095369;28;46292;-65
2023/08/25 01:53:14;;;;;;;;;14.60;14.60;;;;;29.76;100.00;100241.28;2095522;28;46370;-64
2023/08/25 01:54:14;;;;;;;;;15.80;15.80;;;;;29.73;100.00;100239.75;2119838;27;46737;-64
2023/08/25 01:55:15;;;;;;;;;12.75;11.75;;;;;29.74;100.00;100235.13;2122102;27;46862;-64
2023/08/25 01:56:15;;;;;;;;;12.00;12.00;;;;;29.74;100.00;100238.72;2120921;27;46276;-65
2023/08/25 01:57:15;;;;;;;;;15.75;15.75;;;;;29.71;100.00;100241.75;2104452;28;46511;-65
2023/08/25 01:58:16;;;;;;;;;12.00;12.00;;;;;29.69;100.00;100248.44;2086608;28;46329;-66
2023/08/25 01:59:16;;;;;;;;;14.00;14.00;;;;;29.67;100.00;100248.59;2100424;28;45902;-66
2023/08/25 02:00:19;;;;;;;;;13.50;13.50;;;;;29.67;100.00;100243.13;2122065;27;46224;-64
2023/08/25 02:01:19;;;;;;;;;14.40;14.40;;;;;29.67;100.00;100248.59;2116268;27;46335;-65
2023/08/25 02:02:19;;;;;;;;;14.00;14.00;;;;;29.66;100.00;100233.22;2121953;27;46402;-64
2023/08/25 02:03:20;;;;;;;;;14.25;14.25;;;;;29.68;100.00;100246.72;2121971;27;46882;-65
2023/08/25 02:04:20;;;;;;;;;12.75;12.25;;;;;29.66;100.00;100243.31;2121563;27;47001;-65
2023/08/25 02:05:21;;;;;;;;;12.50;11.75;;;;;29.66;100.00;100237.84;2121909;27;46657;-65
2023/08/25 02:06:21;;;;;;;;;11.80;10.80;;;;;29.66;100.00;100233.22;2121741;27;46316;-65
2023/08/25 02:07:23;;;;;;;;;13.75;12.75;;;;;29.66;100.00;100229.63;2117573;27;46337;-64
2023/08/25 02:08:23;;;;;;;;;13.00;12.00;;;;;29.66;100.00;100229.63;2113700;27;46917;-65
2023/08/25 02:09:23;;;;;;;;;14.00;12.00;;;;;29.65;100.00;100222.44;2121850;27;46762;-65
2023/08/25 02:10:24;;;;;;;;;11.00;11.00;;;;;29.67;100.00;100226.72;2112739;27;46318;-64
2023/08/25 02:11:24;;;;;;;;;12.75;12.00;;;;;29.67;100.00;100223.13;2111863;27;46734;-65
2023/08/25 02:12:24;;;;;;;;;11.50;11.50;;;;;29.66;100.00;100227.75;2120813;27;46420;-65
2023/08/25 02:13:25;;;;;;;;;11.00;11.00;;;;;29.65;100.00;100225.19;2112745;27;45445;-64
2023/08/25 02:14:26;;;;;;;;;12.25;12.25;;;;;29.63;100.00;100219.88;2112968;27;46915;-64
2023/08/25 02:15:27;;;;;;;;;7.75;7.75;;;;;29.63;100.00;100221.78;2121532;27;47178;-65
2023/08/25 02:16:27;;;;;;;;;9.33;9.33;;;;;29.62;100.00;100220.91;2121838;27;46663;-65
2023/08/25 02:17:28;;;;;;;;;10.00;10.00;;;;;29.61;100.00;100213.75;2113489;27;46460;-64
2023/08/25 02:18:28;;;;;;;;;11.67;11.67;;;;;29.63;100.00;100216.31;2116865;27;46840;-65
2023/08/25 02:19:28;;;;;;;;;13.00;13.00;;;;;29.63;100.00;100221.78;2122367;27;46658;-64
2023/08/25 02:20:29;;;;;;;;;11.00;10.25;;;;;29.63;100.00;100222.63;2121413;27;46026;-64
2023/08/25 02:21:29;;;;;;;;;10.00;10.00;;;;;29.65;100.00;100225.19;2120716;27;46394;-64
2023/08/25 02:22:30;;;;;;;;;10.50;9.50;;;;;29.65;100.00;100216.97;2112931;27;46265;-64
2023/08/25 02:23:30;;;;;;;;;11.50;11.50;;;;;29.64;100.00;100218.00;2118143;27;46377;-65
2023/08/25 02:24:30;;;;;;;;;11.25;10.75;;;;;29.63;100.00;100213.56;2121731;27;46306;-64
2023/08/25 02:25:31;;;;;;;;;11.75;11.75;;;;;29.62;100.00;100212.72;2122060;27;46410;-64
2023/08/25 02:26:31;;;;;;;;;9.00;9.00;;;;;29.61;100.00;100218.34;2118900;27;46156;-64
2023/08/25 02:27:32;;;;;;;;;10.00;10.00;;;;;29.62;100.00;100214.59;2120315;27;46296;-64
2023/08/25 02:28:32;;;;;;;;;12.00;12.00;;;;;29.63;100.00;100216.31;2121175;27;46290;-65
2023/08/25 02:29:32;;;;;;;;;10.67;10.67;;;;;29.63;100.00;100210.84;2121561;27;46706;-65
2023/08/25 02:30:33;;;;;;;;;11.00;11.00;;;;;29.63;100.00;100211.69;2121685;27;46836;-65
2023/08/25 02:31:33;;;;;;;;;10.50;10.00;;;;;29.62;100.00;100203.66;2121437;27;46658;-65
2023/08/25 02:32:33;;;;;;;;;13.00;13.00;;;;;29.61;100.00;100196.47;2121725;27;46558;-65
2023/08/25 02:33:35;;;;;;;;;11.50;11.50;;;;;29.61;100.00;100185.53;2103128;28;47014;-66
2023/08/25 02:34:35;;;;;;;;;10.50;10.50;;;;;29.60;100.00;100187.38;2103315;27;45821;-65
2023/08/25 02:35:36;;;;;;;;;8.67;8.67;;;;;29.59;100.00;100178.34;2121940;27;46921;-65
2023/08/25 02:36:36;;;;;;;;;11.00;11.00;;;;;29.59;100.00;100180.22;2121274;27;46107;-66
2023/08/25 02:37:55;;;;;;;;;9.67;9.33;;;;;29.60;100.00;100173.72;2112892;27;46816;-64
2023/08/25 02:38:55;;;;;;;;;10.25;10.25;;;;;29.57;100.00;100169.44;2115646;27;46198;-65
2023/08/25 02:39:55;;;;;;;;;13.00;11.33;;;;;29.58;100.00;100170.31;2112501;27;46389;-66
2023/08/25 02:40:56;;;;;;;;;11.50;11.50;;;;;29.60;100.00;100160.03;2104433;28;46180;-65
2023/08/25 02:41:56;;;;;;;;;11.00;10.75;;;;;29.62;100.00;100162.63;2112749;27;46225;-66
2023/08/25 02:42:59;;;;;;;;;12.00;11.75;;;;;29.59;100.00;100163.81;2121548;27;46560;-64
2023/08/25 02:43:59;;;;;;;;;12.00;11.80;;;;;29.58;100.00;100151.16;2121312;27;47044;-64
2023/08/25 02:45:00;;;;;;;;;12.25;11.75;;;;;29.57;100.00;100157.66;2121475;27;46800;-65
2023/08/25 02:46:00;;;;;;;;;11.50;11.50;;;;;29.56;100.00;100156.81;2118805;27;46591;-64
2023/08/25 02:47:00;;;;;;;;;11.75;11.75;;;;;29.55;100.00;100149.63;2121242;27;46404;-64
2023/08/25 02:48:01;;;;;;;;;8.67;8.67;;;;;29.54;100.00;100153.38;2111674;27;46484;-65
2023/08/25 02:49:01;;;;;;;;;13.00;11.75;;;;;29.54;100.00;100147.91;2109849;27;46335;-65
2023/08/25 02:50:03;;;;;;;;;14.00;12.75;;;;;29.55;100.00;100146.03;2112613;27;46264;-65
2023/08/25 02:51:03;;;;;;;;;13.00;12.00;;;;;29.55;100.00;100149.63;2118748;27;46649;-65
2023/08/25 02:52:05;;;;;;;;;15.25;15.00;;;;;29.55;100.00;100146.91;2120585;27;46175;-64
2023/08/25 02:53:05;;;;;;;;;16.00;14.80;;;;;29.54;100.00;100144.34;2113479;27;46167;-64
2023/08/25 02:54:06;;;;;;;;;13.50;13.50;;;;;29.53;100.00;100148.94;2117145;27;46374;-63
2023/08/25 02:55:06;;;;;;;;;11.00;11.00;;;;;29.54;100.00;100155.28;2116419;27;46359;-64
2023/08/25 02:56:06;;;;;;;;;10.67;10.00;;;;;29.52;100.00;100154.59;2116197;27;46292;-65
2023/08/25 02:57:07;;;;;;;;;11.00;10.33;;;;;29.51;100.00;100155.63;2120081;27;46558;-65
2023/08/25 02:58:07;;;;;;;;;13.25;13.25;;;;;29.51;100.00;100163.81;2112639;27;44975;-65
2023/08/25 02:59:07;;;;;;;;;12.25;12.25;;;;;29.49;100.00;100161.25;2109150;27;46571;-65
2023/08/25 03:00:10;;;;;;;;;14.25;12.00;;;;;29.51;100.00;100166.56;2116045;27;46888;-65
2023/08/25 03:01:11;;;;;;;;;13.60;13.60;;;;;29.50;100.00;100153.91;2120503;27;46538;-65
2023/08/25 03:02:12;;;;;;;;;13.00;13.00;;;;;29.49;100.00;100154.94;2111990;27;46314;-65
2023/08/25 03:03:12;;;;;;;;;15.75;14.75;;;;;29.48;100.00;100156.81;2111089;27;46342;-64
2023/08/25 03:04:12;;;;;;;;;15.00;15.00;;;;;29.49;100.00;100160.41;2123804;27;46608;-66
2023/08/25 03:05:13;;;;;;;;;18.00;16.75;;;;;29.49;100.00;100168.59;2121325;27;45938;-64
2023/08/25 03:06:13;;;;;;;;;19.25;19.25;;;;;29.45;100.00;100168.03;2122006;27;46723;-65
2023/08/25 03:07:14;;;;;;;;;16.50;16.25;;;;;29.45;100.00;100167.19;2121595;27;46331;-65
2023/08/25 03:08:15;;;;;;;;;18.25;18.25;;;;;29.42;100.00;100175.72;2121176;27;46183;-64
2023/08/25 03:09:15;;;;;;;;;18.40;18.20;;;;;29.41;100.00;100171.28;2121670;27;46330;-64
2023/08/25 03:10:16;;;;;;;;;20.00;19.25;;;;;29.42;100.00;100176.56;2121591;27;46334;-66
2023/08/25 03:11:16;;;;;;;;;19.00;17.75;;;;;29.41;100.00;100174.88;2121261;27;46807;-65
2023/08/25 03:12:16;;;;;;;;;19.50;17.75;;;;;29.41;100.00;100180.34;2121482;27;46722;-65
2023/08/25 03:13:17;;;;;;;;;19.00;18.50;;;;;29.42;100.00;100178.44;2121040;27;45923;-65
2023/08/25 03:14:18;;;;;;;;;17.00;17.00;;;;;29.42;100.00;100183.91;2121100;27;46416;-65
2023/08/25 03:15:18;;;;;;;;;17.80;17.80;;;;;29.41;100.00;100191.28;2121415;27;46297;-65
2023/08/25 03:16:19;;;;;;;;;18.75;18.00;;;;;29.41;100.00;100196.72;2121579;27;46364;-65
2023/08/25 03:17:19;;;;;;;;;18.75;18.75;;;;;29.40;100.00;100196.91;2120262;27;46734;-65
2023/08/25 03:18:19;;;;;;;;;15.25;15.25;;;;;29.39;100.00;100198.78;2121692;27;46677;-65
2023/08/25 03:19:20;;;;;;;;;14.75;14.75;;;;;29.38;100.00;100204.41;2121510;27;46443;-64
2023/08/25 03:20:20;;;;;;;;;16.50;14.75;;;;;29.38;100.00;100205.28;2112289;27;46180;-65
2023/08/25 03:21:20;;;;;;;;;17.50;16.50;;;;;29.37;100.00;100203.56;2103854;28;46474;-65
2023/08/25 03:22:21;;;;;;;;;15.50;14.00;;;;;29.36;100.00;100203.75;2112385;27;46724;-65
2023/08/25 03:23:21;;;;;;;;;17.25;16.50;;;;;29.35;100.00;100216.56;2121253;27;46494;-66
2023/08/25 03:24:21;;;;;;;;;16.75;16.25;;;;;29.35;100.00;100221.13;2121236;27;46289;-65
2023/08/25 03:25:22;;;;;;;;;14.75;13.25;;;;;29.34;100.00;100227.63;2112321;27;45575;-65
2023/08/25 03:26:22;;;;;;;;;15.75;15.00;;;;;29.34;100.00;100235.81;2111698;27;46209;-65
2023/08/25 03:27:22;;;;;;;;;17.25;16.25;;;;;29.34;100.00;100224.88;2121792;27;46276;-65
2023/08/25 03:28:23;;;;;;;;;10.25;10.25;;;;;29.33;100.00;100229.50;2121152;27;46948;-65
2023/08/25 03:29:23;;;;;;;;;15.25;15.25;;;;;29.33;100.00;100231.38;2121694;27;46655;-65
2023/08/25 03:30:24;;;;;;;;;14.50;14.50;;;;;29.33;100.00;100237.69;2112289;27;45921;-65
2023/08/25 03:31:24;;;;;;;;;18.25;17.00;;;;;29.34;100.00;100241.28;2112460;27;46732;-65
2023/08/25 03:32:25;;;;;;;;;17.25;17.00;;;;;29.34;100.00;100244.88;2121336;27;46546;-65
2023/08/25 03:33:25;;;;;;;;;17.00;17.00;;;;;29.35;100.00;100248.47;2121563;27;46193;-65
2023/08/25 03:34:26;;;;;;;;;19.00;17.00;;;;;29.46;100.00;100250.91;2121300;27;46509;-65
2023/08/25 03:35:26;;;;;;;;;16.00;15.00;;;;;29.39;100.00;100253.47;2119935;27;46583;-64
2023/08/25 03:36:26;;;;;;;;;19.00;19.00;;;;;29.38;100.00;100259.94;2118801;27;46572;-64
2023/08/25 03:37:29;;;;;;;;;16.80;16.80;;;;;29.36;100.00;100258.41;2121567;27;46387;-64
2023/08/25 03:38:29;;;;;;;;;17.25;17.00;;;;;29.35;100.00;100271.22;2119754;27;46625;-65
2023/08/25 03:39:30;;;;;;;;;16.25;16.25;;;;;29.35;100.00;100271.22;2119085;27;46328;-65
2023/08/25 03:40:30;;;;;;;;;17.00;16.00;;;;;29.35;100.00;100278.53;2112814;27;46820;-65
2023/08/25 03:41:31;;;;;;;;;17.25;17.25;;;;;29.34;100.00;100280.41;2113219;27;46948;-65
2023/08/25 03:42:31;;;;;;;;;19.00;18.75;;;;;29.34;100.00;100274.94;2104179;27;46311;-65
2023/08/25 03:43:31;;;;;;;;;16.75;16.75;;;;;29.34;100.00;100271.34;2104195;28;45546;-64
2023/08/25 03:44:32;;;;;;;;;18.75;18.75;;;;;29.35;100.00;100251.19;2116256;27;46798;-65
2023/08/25 03:45:35;;;;;;;;;16.00;16.00;;;;;29.37;100.00;100247.31;2119094;27;46295;-64
2023/08/25 03:46:35;;;;;;;;;20.40;19.60;;;;;29.36;100.00;100239.28;2120147;27;46567;-63
2023/08/25 03:47:36;;;;;;;;;16.75;16.25;;;;;29.37;100.00;100235.53;2121425;27;46585;-65
2023/08/25 03:48:36;;;;;;;;;20.00;19.25;;;;;29.38;100.00;100237.22;2121439;27;46621;-65
2023/08/25 03:49:36;;;;;;;;;17.50;17.50;;;;;29.38;100.00;100232.63;2120631;27;46479;-65
2023/08/25 03:50:37;;;;;;;;;19.00;19.00;;;;;29.40;100.00;100243.38;2119138;27;46943;-64
2023/08/25 03:51:38;;;;;;;;;18.50;18.50;;;;;29.41;100.00;100236.88;2120028;27;46966;-64
2023/08/25 03:52:38;;;;;;;;;17.25;17.25;;;;;29.41;100.00;100234.16;2121643;27;46802;-65
2023/08/25 03:53:38;;;;;;;;;19.25;16.75;;;;;29.42;100.00;100238.59;2121130;27;46253;-65
2023/08/25 03:54:39;;;;;;;;;17.00;15.50;;;;;29.41;100.00;100240.47;2112258;27;47246;-64
2023/08/25 03:55:39;;;;;;;;;19.00;17.25;;;;;29.39;100.00;100237.06;2104631;27;46212;-65
2023/08/25 03:56:40;;;;;;;;;17.00;17.00;;;;;29.40;100.00;100227.84;2115543;27;46235;-66
2023/08/25 03:57:40;;;;;;;;;19.40;19.40;;;;;29.40;100.00;100237.91;2120855;27;46404;-65
2023/08/25 03:58:40;;;;;;;;;19.25;18.50;;;;;29.39;100.00;100233.47;2111764;27;46425;-65
2023/08/25 03:59:41;;;;;;;;;19.25;19.25;;;;;29.41;100.00;100237.75;2111955;27;46692;-66
2023/08/25 04:00:41;;;;;;;;;20.50;20.50;;;;;29.41;100.00;100239.63;2119758;27;46571;-65
2023/08/25 04:01:41;;;;;;;;;19.25;17.50;;;;;29.39;100.00;100239.78;2112061;27;46072;-65
2023/08/25 04:02:42;;;;;;;;;17.00;16.50;;;;;29.39;100.00;100230.72;2108239;27;46829;-64
2023/08/25 04:03:42;;;;;;;;;16.50;16.50;;;;;29.39;100.00;100228.84;2115749;27;47075;-65
2023/08/25 04:04:42;;;;;;;;;17.50;17.50;;;;;29.39;100.00;100228.84;2122468;27;46429;-64
2023/08/25 04:05:43;;;;;;;;;19.00;18.00;;;;;29.40;100.00;100216.03;2113057;27;46232;-64
2023/08/25 04:06:43;;;;;;;;;16.25;15.75;;;;;29.40;100.00;100216.91;2113904;27;46237;-64
2023/08/25 04:07:43;;;;;;;;;15.75;15.50;;;;;29.40;100.00;100202.38;2111824;27;46139;-64
2023/08/25 04:08:44;;;;;;;;;23.50;22.25;;;;;29.42;100.00;100208.53;2113860;27;46656;-65
2023/08/25 04:09:44;;;;;;;;;17.25;17.25;;;;;29.40;100.00;100203.22;2122634;27;45897;-64
2023/08/25 04:10:47;;;;;;;;;15.00;14.50;;;;;29.41;100.00;100209.56;2123005;27;45993;-66
2023/08/25 04:11:47;;;;;;;;;18.20;16.00;;;;;29.41;100.00;100202.19;2122733;27;45238;-65
2023/08/25 04:12:48;;;;;;;;;13.75;13.75;;;;;29.41;100.00;100202.19;2122255;27;46400;-65
2023/08/25 04:13:48;;;;;;;;;16.75;16.75;;;;;29.42;100.00;100208.53;2116686;27;46214;-65
2023/08/25 04:14:48;;;;;;;;;15.75;15.75;;;;;29.44;100.00;100201.84;2114364;27;46465;-65
2023/08/25 04:15:57;;;;;;;;;10.50;10.50;;;;;29.44;100.00;100201.00;2122612;27;46474;-64
2023/08/25 04:16:57;;;;;;;;;13.20;13.00;;;;;29.43;100.00;100202.88;2122457;27;46783;-66
2023/08/25 04:17:58;;;;;;;;;13.25;13.25;;;;;29.41;100.00;100198.63;2104234;28;46374;-65
2023/08/25 04:18:58;;;;;;;;;12.67;12.67;;;;;29.41;100.00;100202.19;2104543;28;46472;-64
2023/08/25 04:19:59;;;;;;;;;13.67;13.67;;;;;29.40;100.00;100203.22;2104303;28;46763;-65
2023/08/25 04:20:59;;;;;;;;;12.67;12.67;;;;;29.41;100.00;100195.88;2104603;28;46303;-64
2023/08/25 04:21:59;;;;;;;;;11.00;11.00;;;;;29.41;100.00;100199.47;2104611;28;46285;-64
2023/08/25 04:23:03;;;;;;;;;11.75;11.50;;;;;29.41;100.00;100196.72;2103369;28;46721;-65
2023/08/25 04:24:04;;;;;;;;;11.80;11.80;;;;;29.42;100.00;100192.13;2103359;27;46306;-65
2023/08/25 04:25:04;;;;;;;;;12.50;12.50;;;;;29.42;100.00;100187.50;2104476;28;46728;-64
2023/08/25 04:26:05;;;;;;;;;12.00;11.67;;;;;29.42;100.00;100192.13;2104905;28;46702;-65
2023/08/25 04:27:05;;;;;;;;;14.25;14.00;;;;;29.42;100.00;100187.50;2103486;28;46421;-65
2023/08/25 04:28:06;;;;;;;;;14.00;13.75;;;;;29.41;100.00;100185.81;2084747;28;47052;-65
2023/08/25 04:29:08;;;;;;;;;14.00;14.00;;;;;29.41;100.00;100190.41;2092595;28;46460;-64
2023/08/25 04:30:09;;;;;;;;;13.75;12.50;;;;;29.40;100.00;100192.28;2104438;28;46262;-65
2023/08/25 04:31:10;;;;;;;;;14.00;13.00;;;;;29.39;100.00;100187.84;2103977;28;46494;-65
2023/08/25 04:32:10;;;;;;;;;13.67;13.67;;;;;29.40;100.00;100185.97;2096309;28;46447;-65
2023/08/25 04:33:11;;;;;;;;;15.00;15.00;;;;;29.39;100.00;100184.25;2095709;28;46524;-65
2023/08/25 04:34:12;;;;;;;;;13.40;12.80;;;;;29.38;100.00;100188.03;2104465;28;46393;-65
2023/08/25 04:35:12;;;;;;;;;14.25;14.25;;;;;29.38;100.00;100188.03;2104122;28;46545;-64
2023/08/25 04:36:13;;;;;;;;;15.75;15.75;;;;;29.37;100.00;100184.44;2105235;28;46744;-64
2023/08/25 04:37:14;;;;;;;;;15.00;13.60;;;;;29.35;100.00;100171.94;2104123;28;46339;-65
2023/08/25 04:38:14;;;;;;;;;14.25;14.25;;;;;29.35;100.00;100174.66;2104599;28;46296;-64